• Join FlightAware (Why Join?)
  • Login
  • US Flag 
08:16PM EDT


 

Airport Tracker/Info


-or-


 

Live Flight TrackerFlight Track Log ✈ N175MT ✈ 04-Jul-2013 ✈ KHEG - KCPC

Flight Track Log - Related Links

Times and Time Zones

All times are in EDT time to prevent confusion due to time zone crossing. See the N175MT flight status page for this flight to view local times or setup timezone preferences in your user account.

Time Position Orientation Groundspeed Altitude Reporting Facility
EDT Latitude Longitude Course Direction KTS MPH feet Rate Location/Type
09:56AM 31.1358 -81.3319 33° Northeast 133 153 7,500  Level Jacksonville Center
09:57AM 31.1711 -81.3047 33° Northeast 128 147 7,500  Level Jacksonville Center
09:58AM 31.2022 -81.2797 34° Northeast 122 140 7,500  Level Jacksonville Center
09:59AM 31.2353 -81.2575 30° Northeast 127 146 7,500  Level Jacksonville Center
10:00AM 31.2642 -81.2375 31° Northeast 132 152 7,500  Level Jacksonville Center
10:01AM 31.2972 -81.2150 30° Northeast 132 152 7,500  Level Jacksonville Center
10:02AM 31.3344 -81.1875 32° Northeast 137 158 7,500  Level Jacksonville Center
10:03AM 31.3678 -81.1650 30° Northeast 137 158 7,500  Level Jacksonville Center
10:04AM 31.3967 -81.1450 31° Northeast 137 158 7,500  Level Jacksonville Center
10:05AM 31.4297 -81.1200 33° Northeast 137 158 7,500  Level Jacksonville Center
10:06AM 31.4647 -81.0950 31° Northeast 137 158 7,500  Level Jacksonville Center
10:07AM 31.4958 -81.0700 34° Northeast 137 158 7,600  Climbing Jacksonville Center
10:08AM 31.5289 -81.0450 33° Northeast 137 158 7,600  Level Jacksonville Center
10:09AM 31.5597 -81.0225 32° Northeast 137 158 7,600  Level Jacksonville Center
10:10AM 31.5928 -81.0000 30° Northeast 137 158 7,600  Level Jacksonville Center
10:11AM 31.6300 -80.9772 28° Northeast 137 158 7,600  Level Jacksonville Center
10:12AM 31.6631 -80.9522 33° Northeast 137 158 7,600  Level Jacksonville Center
10:14AM 31.7059 -80.9114 39° Northeast  Level FlightAware Approximate
10:21AM 31.8993 -80.7267 39° Northeast  Level FlightAware Approximate
10:22AM 31.9269 -80.7002 39° Northeast  Level FlightAware Approximate
10:23AM 31.9545 -80.6738 39° Northeast  Level FlightAware Approximate
10:24AM 31.9821 -80.6473 39° Northeast  Level FlightAware Approximate
10:25AM 32.0097 -80.6208 39° Northeast  Level FlightAware Approximate
10:26AM 32.0373 -80.5943 39° Northeast  Level FlightAware Approximate
10:27AM 32.0649 -80.5677 39° Northeast  Level FlightAware Approximate
10:28AM 32.0942 -80.5409 35° Northeast  Level FlightAware Approximate
10:29AM 32.1233 -80.5166 35° Northeast  Level FlightAware Approximate
10:30AM 32.1523 -80.4923 35° Northeast  Level FlightAware Approximate
10:31AM 32.1814 -80.4680 35° Northeast  Level FlightAware Approximate
10:32AM 32.2104 -80.4437 35° Northeast  Level FlightAware Approximate
10:33AM 32.2394 -80.4194 35° Northeast  Level FlightAware Approximate
10:34AM 32.2684 -80.3950 35° Northeast  Level FlightAware Approximate
10:35AM 32.2975 -80.3706 35° Northeast  Level FlightAware Approximate
10:36AM 32.3265 -80.3463 35° Northeast  Level FlightAware Approximate
10:37AM 32.3555 -80.3219 35° Northeast  Level FlightAware Approximate
10:38AM 32.3845 -80.2974 35° Northeast  Level FlightAware Approximate
10:39AM 32.4135 -80.2730 35° Northeast  Level FlightAware Approximate
10:40AM 32.4425 -80.2486 35° Northeast  Level FlightAware Approximate
10:41AM 32.4715 -80.2241 35° Northeast  Level FlightAware Approximate
10:42AM 32.5004 -80.1996 35° Northeast  Level FlightAware Approximate
10:43AM 32.5296 -80.1754 35° Northeast  Level FlightAware Approximate
10:44AM 32.5587 -80.1512 35° Northeast  Level FlightAware Approximate
10:45AM 32.5879 -80.1270 35° Northeast  Level FlightAware Approximate
10:46AM 32.6170 -80.1027 35° Northeast  Level FlightAware Approximate
10:47AM 32.6461 -80.0784 35° Northeast  Level FlightAware Approximate
10:48AM 32.6753 -80.0541 35° Northeast  Level FlightAware Approximate
10:49AM 32.7044 -80.0298 35° Northeast  Level FlightAware Approximate
10:50AM 32.7335 -80.0055 35° Northeast  Level FlightAware Approximate
10:51AM 32.7626 -79.9812 35° Northeast  Level FlightAware Approximate
10:52AM 32.7917 -79.9568 35° Northeast  Level FlightAware Approximate
10:53AM 32.8208 -79.9325 35° Northeast  Level FlightAware Approximate
10:54AM 32.8499 -79.9081 35° Northeast  Level FlightAware Approximate
10:55AM 32.8790 -79.8837 35° Northeast  Level FlightAware Approximate
10:56AM 32.9081 -79.8593 35° Northeast  Level FlightAware Approximate
10:57AM 32.9372 -79.8348 35° Northeast  Level FlightAware Approximate
10:58AM 32.9663 -79.8104 35° Northeast  Level FlightAware Approximate
10:59AM 32.9953 -79.7859 35° Northeast  Level FlightAware Approximate
11:00AM 33.0244 -79.7614 35° Northeast  Level FlightAware Approximate
11:01AM 33.0535 -79.7369 35° Northeast  Level FlightAware Approximate
11:02AM 33.0825 -79.7124 35° Northeast  Level FlightAware Approximate
11:03AM 33.1116 -79.6879 35° Northeast  Level FlightAware Approximate
11:04AM 33.1406 -79.6634 35° Northeast  Level FlightAware Approximate
11:05AM 33.1697 -79.6388 35° Northeast  Level FlightAware Approximate
11:06AM 33.1987 -79.6142 35° Northeast  Level FlightAware Approximate
11:07AM 33.2277 -79.5896 35° Northeast  Level FlightAware Approximate
11:08AM 33.2567 -79.5650 35° Northeast  Level FlightAware Approximate
11:09AM 33.2858 -79.5404 35° Northeast  Level FlightAware Approximate
11:10AM 33.3148 -79.5157 35° Northeast  Level FlightAware Approximate
11:11AM 33.3438 -79.4911 35° Northeast  Level FlightAware Approximate
11:12AM 33.3729 -79.4665 35° Northeast  Level FlightAware Approximate
11:13AM 33.4019 -79.4419 35° Northeast  Level FlightAware Approximate
11:14AM 33.4310 -79.4173 35° Northeast  Level FlightAware Approximate
11:15AM 33.4600 -79.3926 35° Northeast  Level FlightAware Approximate
11:16AM 33.4891 -79.3680 35° Northeast  Level FlightAware Approximate
11:17AM 33.5181 -79.3433 35° Northeast  Level FlightAware Approximate
11:18AM 33.5471 -79.3186 35° Northeast  Level FlightAware Approximate
11:19AM 33.5761 -79.2939 35° Northeast  Level FlightAware Approximate
11:20AM 33.6052 -79.2691 35° Northeast  Level FlightAware Approximate
11:21AM 33.6342 -79.2444 35° Northeast  Level FlightAware Approximate
11:22AM 33.6632 -79.2196 35° Northeast  Level FlightAware Approximate
11:23AM 33.6922 -79.1949 35° Northeast  Level FlightAware Approximate
11:24AM 33.7212 -79.1701 35° Northeast  Level FlightAware Approximate
11:25AM 33.7502 -79.1452 35° Northeast  Level FlightAware Approximate
11:26AM 33.7792 -79.1204 35° Northeast  Level FlightAware Approximate
11:27AM 33.8082 -79.0956 35° Northeast  Level FlightAware Approximate
11:28AM 33.8371 -79.0707 35° Northeast  Level FlightAware Approximate
11:29AM 33.8661 -79.0458 35° Northeast  Level FlightAware Approximate
11:30AM 33.8951 -79.0209 36° Northeast  Level FlightAware Approximate
11:31AM 33.9246 -78.9970 34° Northeast  Level FlightAware Approximate
11:32AM 33.9542 -78.9733 34° Northeast  Level FlightAware Approximate
11:33AM 33.9838 -78.9495 40° Northeast  Level FlightAware Approximate
11:34AM 34.0112 -78.9221 40° Northeast  Level FlightAware Approximate
11:35AM 34.0387 -78.8947 40° Northeast  Level FlightAware Approximate
11:36AM 34.0675 -78.8697 33° Northeast  Level FlightAware Approximate
11:37AM 34.0975 -78.8465 33° Northeast  Level FlightAware Approximate
11:38AM 34.1274 -78.8232 33° Northeast  Level FlightAware Approximate
11:39AM 34.1573 -78.7999 33° Northeast  Level FlightAware Approximate
11:40AM 34.1872 -78.7766 33° Northeast  Level FlightAware Approximate
11:41AM 34.2157 -78.7510 40° Northeast  Level FlightAware Approximate
11:42AM 34.2431 -78.7236 40° Northeast  Level FlightAware Approximate
11:43AM 34.2667 -78.7000 40° Northeast  Level FlightAware Approximate
11:44AM 34.2729 -78.7150 40° Northeast  Level Estimated
11:45AM 34.2729 -78.7150 40° Northeast  Level Estimated
11:46AM 34.2729 -78.7150 40° Northeast  Level Estimated
11:47AM 34.2729 -78.7150 40° Northeast  Level Estimated
11:48AM 34.2729 -78.7150 40° Northeast  Level Estimated
11:49AM 34.2729 -78.7150 40° Northeast  Level Estimated
11:50AM 34.2729 -78.7150 40° Northeast  Level Estimated
11:51AM 34.2729 -78.7150 40° Northeast  Level Estimated
11:52AM 34.2729 -78.7150 40° Northeast  Level Estimated
11:53AM 34.2729 -78.7150 40° Northeast  Level Estimated
11:54AM 34.2729 -78.7150 40° Northeast  Level Estimated
11:55AM 34.2729 -78.7150 40° Northeast  Level Estimated
11:56AM 34.2729 -78.7150 40° Northeast  Level Estimated
11:57AM 34.2729 -78.7150 40° Northeast  Level Estimated
11:58AM 34.2729 -78.7150 40° Northeast  Level Estimated
11:59AM 34.2729 -78.7150 40° Northeast  Level Estimated
12:00PM 34.2729 -78.7150 40° Northeast  Level Estimated